SIA896 WSSS-VHHH
Flight info
| Callsign | SIA896 |
|---|---|
| Flight time | N/A |
| Altitude | 41000 |
| Route | VMR9B VMR M771 DUDIS/K0896F410 M771 DOSUT/N0485F410 M771 DULOP Q1 CARSO V551 BETTY |
| Aircraft | A359/H-SDE2E3GHIJ3J4J5LM1ORWXY/LB1D1 |
Departure
| Time | 2026-05-06 11:23 |
|---|---|
| Airport | Singapore Changi Airport (WSSS) |
Arrival
| Time | N/A |
|---|---|
| Airport | Hong Kong International Airport (VHHH) |
| Time | Latitude | Longitude | Altitude | Speed | Heading |
|---|---|---|---|---|---|
| 2026-05-06 10:29 | 1.34922 | 103.98170 | 39 ft | 0 kts | 71° |
| 2026-05-06 11:08 | 1.34916 | 103.98151 | 39 ft | 4 kts | 72° |
| 2026-05-06 11:08 | 1.34907 | 103.98127 | 39 ft | 4 kts | 58° |
| 2026-05-06 11:09 | 1.34894 | 103.98109 | 36 ft | 4 kts | 36° |
| 2026-05-06 11:09 | 1.34879 | 103.98101 | 36 ft | 4 kts | 350° |
| 2026-05-06 11:09 | 1.34860 | 103.98109 | 35 ft | 4 kts | 316° |
| 2026-05-06 11:09 | 1.34845 | 103.98126 | 36 ft | 1 kts | 302° |
| 2026-05-06 11:13 | 1.34853 | 103.98113 | 36 ft | 6 kts | 302° |
| 2026-05-06 11:13 | 1.34875 | 103.98070 | 37 ft | 7 kts | 285° |
| 2026-05-06 11:14 | 1.34853 | 103.98027 | 39 ft | 8 kts | 218° |
| 2026-05-06 11:14 | 1.34797 | 103.98029 | 39 ft | 9 kts | 150° |
| 2026-05-06 11:14 | 1.34767 | 103.98085 | 37 ft | 11 kts | 111° |
| 2026-05-06 11:14 | 1.34732 | 103.98171 | 39 ft | 17 kts | 112° |
| 2026-05-06 11:15 | 1.34684 | 103.98283 | 51 ft | 15 kts | 113° |
| 2026-05-06 11:15 | 1.34649 | 103.98364 | 51 ft | 13 kts | 112° |
| 2026-05-06 11:15 | 1.34606 | 103.98467 | 51 ft | 20 kts | 113° |
| 2026-05-06 11:15 | 1.34547 | 103.98605 | 39 ft | 23 kts | 114° |
| 2026-05-06 11:16 | 1.34485 | 103.98748 | 39 ft | 22 kts | 113° |
| 2026-05-06 11:16 | 1.34447 | 103.98837 | 39 ft | 6 kts | 113° |
| 2026-05-06 11:16 | 1.34422 | 103.98895 | 39 ft | 12 kts | 112° |
| 2026-05-06 11:16 | 1.34441 | 103.98960 | 40 ft | 10 kts | 35° |
| 2026-05-06 11:17 | 1.34514 | 103.98991 | 40 ft | 14 kts | 22° |
| 2026-05-06 11:17 | 1.34627 | 103.99039 | 40 ft | 21 kts | 22° |
| 2026-05-06 11:17 | 1.34779 | 103.99102 | 39 ft | 25 kts | 22° |
| 2026-05-06 11:17 | 1.34947 | 103.99173 | 39 ft | 27 kts | 23° |
| 2026-05-06 11:18 | 1.35126 | 103.99247 | 38 ft | 29 kts | 23° |
| 2026-05-06 11:18 | 1.35313 | 103.99325 | 38 ft | 30 kts | 22° |
| 2026-05-06 11:18 | 1.35508 | 103.99407 | 39 ft | 31 kts | 23° |
| 2026-05-06 11:18 | 1.35707 | 103.99491 | 39 ft | 30 kts | 22° |
| 2026-05-06 11:19 | 1.35803 | 103.99532 | 39 ft | 0 kts | 23° |
| 2026-05-06 11:19 | 1.35814 | 103.99536 | 38 ft | 8 kts | 23° |
| 2026-05-06 11:19 | 1.35874 | 103.99561 | 38 ft | 11 kts | 22° |
| 2026-05-06 11:19 | 1.35982 | 103.99606 | 38 ft | 14 kts | 22° |
| 2026-05-06 11:20 | 1.36083 | 103.99649 | 38 ft | 17 kts | 22° |
| 2026-05-06 11:20 | 1.36152 | 103.99677 | 38 ft | 11 kts | 22° |
| 2026-05-06 11:20 | 1.36161 | 103.99681 | 38 ft | 2 kts | 22° |
| 2026-05-06 11:20 | 1.36193 | 103.99694 | 38 ft | 7 kts | 22° |
| 2026-05-06 11:21 | 1.36233 | 103.99718 | 38 ft | 7 kts | 47° |
| 2026-05-06 11:21 | 1.36237 | 103.99764 | 38 ft | 4 kts | 111° |
| 2026-05-06 11:21 | 1.36236 | 103.99765 | 38 ft | 0 kts | 111° |
| 2026-05-06 11:21 | 1.36232 | 103.99777 | 38 ft | 5 kts | 111° |
| 2026-05-06 11:22 | 1.36212 | 103.99827 | 37 ft | 10 kts | 111° |
| 2026-05-06 11:22 | 1.36180 | 103.99880 | 37 ft | 6 kts | 155° |
| 2026-05-06 11:22 | 1.36135 | 103.99872 | 37 ft | 7 kts | 202° |
| 2026-05-06 11:22 | 1.36132 | 103.99871 | 37 ft | 0 kts | 202° |
| 2026-05-06 11:23 | 1.36057 | 103.99841 | 36 ft | 36 kts | 203° |
| 2026-05-06 11:23 | 1.35582 | 103.99640 | 40 ft | 110 kts | 203° |
| 2026-05-06 11:23 | 1.34669 | 103.99255 | 40 ft | 172 kts | 203° |
| 2026-05-06 11:23 | 1.33561 | 103.98785 | 839 ft | 163 kts | 203° |
| 2026-05-06 11:24 | 1.32510 | 103.98304 | 1525 ft | 174 kts | 205° |
| 2026-05-06 11:24 | 1.31325 | 103.97765 | 1847 ft | 200 kts | 202° |
| 2026-05-06 11:24 | 1.29983 | 103.97219 | 2318 ft | 216 kts | 201° |
| 2026-05-06 11:24 | 1.28545 | 103.96635 | 2839 ft | 231 kts | 202° |
| 2026-05-06 11:25 | 1.26986 | 103.95991 | 3315 ft | 252 kts | 202° |
| 2026-05-06 11:25 | 1.25326 | 103.95325 | 4009 ft | 261 kts | 199° |
| 2026-05-06 11:25 | 1.23555 | 103.95024 | 4755 ft | 267 kts | 177° |
| 2026-05-06 11:25 | 1.21774 | 103.95543 | 5552 ft | 271 kts | 149° |
| 2026-05-06 11:26 | 1.20274 | 103.96692 | 6374 ft | 274 kts | 138° |
| 2026-05-06 11:26 | 1.18844 | 103.97976 | 7191 ft | 278 kts | 138° |
| 2026-05-06 11:26 | 1.17426 | 103.99307 | 8026 ft | 281 kts | 133° |
| 2026-05-06 11:26 | 1.16403 | 104.00966 | 8869 ft | 285 kts | 108° |
| 2026-05-06 11:27 | 1.16212 | 104.02933 | 9749 ft | 288 kts | 82° |
| 2026-05-06 11:27 | 1.16927 | 104.04808 | 10436 ft | 298 kts | 58° |
| 2026-05-06 11:27 | 1.18203 | 104.06527 | 10810 ft | 318 kts | 51° |
| 2026-05-06 11:27 | 1.19687 | 104.08254 | 11143 ft | 337 kts | 46° |
| 2026-05-06 11:28 | 1.21611 | 104.09682 | 11562 ft | 352 kts | 31° |
| 2026-05-06 11:28 | 1.23788 | 104.10870 | 12167 ft | 359 kts | 27° |
| 2026-05-06 11:28 | 1.26126 | 104.11787 | 12801 ft | 365 kts | 17° |
| 2026-05-06 11:28 | 1.28655 | 104.12191 | 13432 ft | 371 kts | 6° |
| 2026-05-06 11:29 | 1.31261 | 104.12181 | 14015 ft | 376 kts | 355° |
| 2026-05-06 11:29 | 1.33864 | 104.11779 | 14587 ft | 381 kts | 351° |
| 2026-05-06 11:29 | 1.36463 | 104.11250 | 15144 ft | 385 kts | 349° |
| 2026-05-06 11:29 | 1.39091 | 104.10672 | 15698 ft | 388 kts | 348° |
| 2026-05-06 11:30 | 1.41746 | 104.10068 | 16261 ft | 392 kts | 348° |
| 2026-05-06 11:30 | 1.44417 | 104.09450 | 16811 ft | 396 kts | 348° |
| 2026-05-06 11:30 | 1.47111 | 104.08820 | 17361 ft | 399 kts | 348° |
| 2026-05-06 11:30 | 1.49823 | 104.08184 | 17882 ft | 403 kts | 348° |
| 2026-05-06 11:31 | 1.52571 | 104.07537 | 18378 ft | 407 kts | 348° |
| 2026-05-06 11:31 | 1.55336 | 104.06886 | 18838 ft | 410 kts | 348° |
| 2026-05-06 11:31 | 1.58118 | 104.06230 | 19311 ft | 413 kts | 348° |
| 2026-05-06 11:31 | 1.60922 | 104.05568 | 19778 ft | 416 kts | 348° |
| 2026-05-06 11:32 | 1.63749 | 104.04901 | 20248 ft | 419 kts | 348° |
| 2026-05-06 11:32 | 1.66592 | 104.04230 | 20714 ft | 422 kts | 348° |
| 2026-05-06 11:32 | 1.69422 | 104.03563 | 21180 ft | 425 kts | 348° |
| 2026-05-06 11:32 | 1.72308 | 104.02881 | 21652 ft | 428 kts | 348° |
| 2026-05-06 11:33 | 1.75222 | 104.02193 | 22123 ft | 431 kts | 348° |
| 2026-05-06 11:33 | 1.78148 | 104.01502 | 22592 ft | 434 kts | 348° |
| 2026-05-06 11:33 | 1.81099 | 104.00806 | 23055 ft | 437 kts | 348° |
| 2026-05-06 11:33 | 1.84079 | 104.00102 | 23489 ft | 440 kts | 348° |
| 2026-05-06 11:34 | 1.87065 | 103.99397 | 23870 ft | 443 kts | 348° |
| 2026-05-06 11:34 | 1.90083 | 103.98685 | 24254 ft | 446 kts | 348° |
| 2026-05-06 11:34 | 1.93110 | 103.97971 | 24659 ft | 449 kts | 348° |
| 2026-05-06 11:34 | 1.96161 | 103.97250 | 25064 ft | 451 kts | 348° |
| 2026-05-06 11:35 | 1.99223 | 103.96527 | 25501 ft | 454 kts | 348° |
| 2026-05-06 11:35 | 2.02314 | 103.95797 | 25948 ft | 457 kts | 348° |
| 2026-05-06 11:35 | 2.05423 | 103.95063 | 26414 ft | 460 kts | 348° |
| 2026-05-06 11:35 | 2.08550 | 103.94325 | 26884 ft | 463 kts | 348° |
| 2026-05-06 11:36 | 2.11703 | 103.93580 | 27361 ft | 466 kts | 348° |
| 2026-05-06 11:36 | 2.14839 | 103.92840 | 27833 ft | 470 kts | 348° |
| 2026-05-06 11:36 | 2.18032 | 103.92086 | 28312 ft | 473 kts | 348° |
| 2026-05-06 11:36 | 2.21248 | 103.91326 | 28761 ft | 476 kts | 348° |
| 2026-05-06 11:37 | 2.24493 | 103.90559 | 29216 ft | 480 kts | 348° |
| 2026-05-06 11:37 | 2.27754 | 103.89789 | 29653 ft | 483 kts | 348° |
| 2026-05-06 11:37 | 2.31034 | 103.89023 | 30053 ft | 486 kts | 348° |
| 2026-05-06 11:37 | 2.34394 | 103.88518 | 30418 ft | 487 kts | 357° |
| 2026-05-06 11:38 | 2.37783 | 103.88593 | 30786 ft | 488 kts | 8° |
| 2026-05-06 11:38 | 2.41113 | 103.89289 | 31135 ft | 489 kts | 18° |
| 2026-05-06 11:38 | 2.44242 | 103.90513 | 31480 ft | 490 kts | 26° |
| 2026-05-06 11:38 | 2.47263 | 103.92108 | 31805 ft | 492 kts | 31° |
| 2026-05-06 11:39 | 2.50187 | 103.93897 | 32140 ft | 494 kts | 33° |
| 2026-05-06 11:39 | 2.53079 | 103.95774 | 32465 ft | 496 kts | 34° |
| 2026-05-06 11:39 | 2.55973 | 103.97673 | 32781 ft | 499 kts | 34° |
| 2026-05-06 11:39 | 2.58893 | 103.99571 | 33081 ft | 501 kts | 33° |
| 2026-05-06 11:40 | 2.61847 | 104.01460 | 33387 ft | 504 kts | 33° |
| 2026-05-06 11:40 | 2.64817 | 104.03335 | 33688 ft | 505 kts | 33° |
| 2026-05-06 11:40 | 2.67797 | 104.05198 | 34086 ft | 504 kts | 32° |
| 2026-05-06 11:40 | 2.70766 | 104.07045 | 34477 ft | 502 kts | 32° |
| 2026-05-06 11:41 | 2.73686 | 104.08859 | 34849 ft | 501 kts | 32° |
| 2026-05-06 11:41 | 2.76645 | 104.10697 | 35218 ft | 499 kts | 32° |
| 2026-05-06 11:41 | 2.79589 | 104.12527 | 35613 ft | 497 kts | 33° |
| 2026-05-06 11:41 | 2.82521 | 104.14350 | 36006 ft | 496 kts | 33° |
| 2026-05-06 11:42 | 2.85448 | 104.16172 | 36370 ft | 495 kts | 33° |
| 2026-05-06 11:42 | 2.88368 | 104.17990 | 36730 ft | 493 kts | 33° |
| 2026-05-06 11:42 | 2.91285 | 104.19807 | 37110 ft | 492 kts | 33° |
| 2026-05-06 11:42 | 2.94188 | 104.21615 | 37477 ft | 490 kts | 33° |
| 2026-05-06 11:43 | 2.97078 | 104.23415 | 37833 ft | 489 kts | 33° |
| 2026-05-06 11:43 | 2.99960 | 104.25211 | 38194 ft | 488 kts | 33° |
| 2026-05-06 11:43 | 3.02839 | 104.27004 | 38533 ft | 486 kts | 33° |
| 2026-05-06 11:44 | 3.08562 | 104.30582 | 39061 ft | 485 kts | 33° |
| 2026-05-06 11:44 | 3.11409 | 104.32387 | 39298 ft | 484 kts | 34° |
| 2026-05-06 11:44 | 3.14253 | 104.34199 | 39551 ft | 483 kts | 34° |
| 2026-05-06 11:44 | 3.17057 | 104.35971 | 39800 ft | 482 kts | 33° |
| 2026-05-06 11:45 | 3.19943 | 104.37767 | 40054 ft | 482 kts | 33° |
| 2026-05-06 11:45 | 3.22792 | 104.39528 | 40264 ft | 481 kts | 32° |
| 2026-05-06 11:45 | 3.25599 | 104.41261 | 40507 ft | 480 kts | 32° |
| 2026-05-06 11:45 | 3.28436 | 104.43014 | 40736 ft | 479 kts | 32° |
| 2026-05-06 11:46 | 3.34107 | 104.46527 | 40829 ft | 478 kts | 33° |
| 2026-05-06 11:46 | 3.39762 | 104.50038 | 40830 ft | 478 kts | 33° |
| 2026-05-06 11:47 | 3.45417 | 104.53553 | 40829 ft | 478 kts | 33° |
| 2026-05-06 11:47 | 3.51055 | 104.57059 | 40828 ft | 478 kts | 33° |
| 2026-05-06 11:48 | 3.56709 | 104.60570 | 40831 ft | 478 kts | 33° |
| 2026-05-06 11:48 | 3.62362 | 104.64082 | 40828 ft | 478 kts | 33° |
| 2026-05-06 11:49 | 3.68005 | 104.67590 | 40828 ft | 478 kts | 33° |
| 2026-05-06 11:49 | 3.73612 | 104.71076 | 40832 ft | 477 kts | 33° |
| 2026-05-06 11:50 | 3.79264 | 104.74591 | 40828 ft | 477 kts | 33° |
| 2026-05-06 11:50 | 3.84909 | 104.78108 | 40829 ft | 477 kts | 33° |
| 2026-05-06 11:51 | 3.90561 | 104.81625 | 40829 ft | 477 kts | 33° |
| 2026-05-06 11:51 | 3.96202 | 104.85132 | 40830 ft | 477 kts | 33° |
| 2026-05-06 11:52 | 4.01804 | 104.88618 | 40832 ft | 477 kts | 33° |
| 2026-05-06 11:52 | 4.07442 | 104.92128 | 40824 ft | 477 kts | 33° |
| 2026-05-06 11:53 | 4.13084 | 104.95641 | 40830 ft | 477 kts | 33° |
| 2026-05-06 11:53 | 4.18728 | 104.99156 | 40827 ft | 477 kts | 33° |
| 2026-05-06 11:54 | 4.24361 | 105.02667 | 40830 ft | 477 kts | 33° |
| 2026-05-06 11:54 | 4.30006 | 105.06172 | 40831 ft | 477 kts | 33° |
| 2026-05-06 11:55 | 4.35653 | 105.09677 | 40825 ft | 477 kts | 33° |
| 2026-05-06 11:55 | 4.41296 | 105.13182 | 40830 ft | 477 kts | 33° |
| 2026-05-06 11:56 | 4.46901 | 105.16666 | 40829 ft | 477 kts | 33° |
| 2026-05-06 11:56 | 4.52542 | 105.20174 | 40828 ft | 477 kts | 33° |
| 2026-05-06 11:57 | 4.58182 | 105.23681 | 40830 ft | 477 kts | 33° |
| 2026-05-06 11:57 | 4.63827 | 105.27192 | 40830 ft | 477 kts | 33° |
| 2026-05-06 11:58 | 4.69473 | 105.30705 | 40829 ft | 477 kts | 33° |
| 2026-05-06 11:58 | 4.75126 | 105.34222 | 40827 ft | 477 kts | 33° |
| 2026-05-06 11:59 | 4.80767 | 105.37733 | 40826 ft | 478 kts | 33° |
| 2026-05-06 11:59 | 4.86374 | 105.41305 | 40831 ft | 477 kts | 34° |
| 2026-05-06 12:00 | 4.91900 | 105.44933 | 40830 ft | 477 kts | 34° |
| 2026-05-06 12:00 | 4.97465 | 105.48582 | 40829 ft | 478 kts | 34° |
| 2026-05-06 12:01 | 5.03041 | 105.52221 | 40826 ft | 478 kts | 34° |